Polfoss — V2PN7 — position and weather

sailwx.info

Track history (hours):
 
Tides and Currents Weather Stations Pressure Air Temp Water Temp Dewpoint Dewpoint Depression Visibility Wind Speed Wind Dir Waves Ship Positions

Polfoss

Last reported at 2014-Jul-26 04:28 UTC. Time now 2014-Jul-26 07:11 UTC.
Position N 60°15' E 005°09'.

Length 82 m; draft 6 m.

Type: Cargo ship. MMSI: 305081000.

Date/timePositionNaut miles runAvg speedWind from/ knotsBaromVisibWave heightAir tempDewpointWater temp
2014-Jul-26 04:28N 60°15' E 005°09'1111.6
2014-Jul-26 03:31N 60°26' E 005°03'  
2014-Jul-23 08:33N 64°50' E 011°10'1413.6
2014-Jul-23 07:33N 64°58' E 011°34'1413.9
2014-Jul-23 06:33N 65°10' E 011°51'2512.7
2014-Jul-23 04:33N 65°35' E 012°08'3414.2
2014-Jul-23 02:10N 66°06' E 012°42'1314.2
2014-Jul-23 01:14N 66°18' E 012°56'1114.3
2014-Jul-23 00:30N 66°28' E 012°59'1312.8
2014-Jul-22 23:31N 66°40' E 013°08'1413.9
2014-Jul-22 22:32N 66°53' E 013°20'1414.3
2014-Jul-22 21:33N 67°07' E 013°14'2914.4
2014-Jul-22 19:33N 67°34' E 012°47'  
2014-Jul-19 02:31N 70°32' E 023°01'1414.4
2014-Jul-19 01:32N 70°38' E 023°39'2 1.6
2014-Jul-19 00:33N 70°39' E 023°35'  
2014-Jul-16 06:32N 70°38' E 023°40'7 7.2
2014-Jul-16 05:33N 70°37' E 023°19'  
Track history (hours):
 
Tides and Currents Weather Stations Pressure Air Temp Water Temp Dewpoint Dewpoint Depression Visibility Wind Speed Wind Dir Waves Ship Positions

Polfoss

Last reported at 2014-Jul-26 04:28 UTC. Time now 2014-Jul-26 07:11 UTC.
Position N 60°15' E 005°09'.

Length 82 m; draft 6 m.

Type: Cargo ship. MMSI: 305081000.

Date/timePositionNaut miles runAvg speedWind from/ knotsBaromVisibWave heightAir tempDewpointWater temp
2014-Jul-26 04:28N 60°15' E 005°09'1111.6
2014-Jul-26 03:31N 60°26' E 005°03'  
2014-Jul-23 08:33N 64°50' E 011°10'1413.6
2014-Jul-23 07:33N 64°58' E 011°34'1413.9
2014-Jul-23 06:33N 65°10' E 011°51'2512.7
2014-Jul-23 04:33N 65°35' E 012°08'3414.2
2014-Jul-23 02:10N 66°06' E 012°42'1314.2
2014-Jul-23 01:14N 66°18' E 012°56'1114.3
2014-Jul-23 00:30N 66°28' E 012°59'1312.8
2014-Jul-22 23:31N 66°40' E 013°08'1413.9
2014-Jul-22 22:32N 66°53' E 013°20'1414.3
2014-Jul-22 21:33N 67°07' E 013°14'2914.4
2014-Jul-22 19:33N 67°34' E 012°47'  
2014-Jul-19 02:31N 70°32' E 023°01'1414.4
2014-Jul-19 01:32N 70°38' E 023°39'2 1.6
2014-Jul-19 00:33N 70°39' E 023°35'  
2014-Jul-16 06:32N 70°38' E 023°40'7 7.2
2014-Jul-16 05:33N 70°37' E 023°19'  

Dump ship's entire track history